Time;durP1;ratioP1;P1;durP2;ratioP2;P2;SDS_P1;SDS_P2;PMS_P1;PMS_P2;Temp;Humidity;BMP_temperature;BMP_pressure;BME280_temperature;BME280_humidity;BME280_pressure;Samples;Min_cycle;Max_cycle;Signal;HPM_P1;HPM_P2
2021/10/17 00:00:52;;;;;;;7.78;3.55;;;7.60;99.90;;;;;;5090264;28;20051;-49
2021/10/17 00:03:18;;;;;;;7.93;3.63;;;7.50;99.90;;;;;;5090137;28;20064;-47
2021/10/17 00:05:43;;;;;;;9.15;4.43;;;7.60;99.90;;;;;;5090102;28;20397;-50
2021/10/17 00:08:09;;;;;;;9.07;3.90;;;7.60;99.90;;;;;;5088948;28;20032;-50
2021/10/17 00:10:38;;;;;;;12.82;4.10;;;7.60;99.90;;;;;;5090178;28;20028;-47
2021/10/17 00:13:06;;;;;;;14.75;4.15;;;7.60;99.90;;;;;;5090063;28;20036;-47
2021/10/17 00:15:33;;;;;;;10.98;3.72;;;7.60;99.90;;;;;;5089906;28;20032;-48
2021/10/17 00:18:00;;;;;;;12.73;4.18;;;7.60;99.90;;;;;;5089316;28;20034;-47
2021/10/17 00:20:27;;;;;;;17.65;4.35;;;7.60;99.90;;;;;;5089663;28;20050;-50
2021/10/17 00:22:53;;;;;;;7.55;4.13;;;7.50;99.90;;;;;;5082678;28;20031;-49
2021/10/17 00:25:20;;;;;;;9.18;3.90;;;7.60;99.90;;;;;;5079795;28;20028;-47
2021/10/17 00:27:45;;;;;;;11.82;3.50;;;7.50;99.90;;;;;;5089073;28;20456;-47
2021/10/17 00:30:12;;;;;;;13.13;4.05;;;7.50;99.90;;;;;;5089734;28;20020;-47
2021/10/17 00:32:38;;;;;;;11.50;3.83;;;7.50;99.90;;;;;;5089530;28;20070;-47
2021/10/17 00:35:05;;;;;;;9.02;3.42;;;7.50;99.90;;;;;;5088519;28;20413;-47
2021/10/17 00:37:32;;;;;;;11.50;3.75;;;7.50;99.90;;;;;;5087351;28;20307;-48
2021/10/17 00:39:59;;;;;;;9.88;4.13;;;7.40;99.90;;;;;;5088042;28;20024;-47
2021/10/17 00:42:24;;;;;;;7.88;3.60;;;7.40;99.90;;;;;;5089242;28;20066;-47
2021/10/17 00:45:04;;;;;;;10.63;3.55;;;7.40;99.90;;;;;;5089379;28;20056;-46
2021/10/17 00:47:30;;;;;;;20.85;4.50;;;7.40;99.90;;;;;;5088941;28;20387;-47
2021/10/17 00:49:56;;;;;;;8.02;3.33;;;7.40;99.90;;;;;;5089209;28;20028;-47
2021/10/17 00:52:21;;;;;;;9.38;3.50;;;7.40;99.90;;;;;;5085502;28;20029;-49
2021/10/17 00:54:48;;;;;;;9.88;3.30;;;7.40;99.90;;;;;;5079310;28;20028;-47
2021/10/17 00:57:15;;;;;;;14.43;4.00;;;7.40;99.90;;;;;;5088584;28;20028;-47
2021/10/17 00:59:41;;;;;;;17.40;4.82;;;7.40;99.90;;;;;;5089071;28;20380;-49
2021/10/17 01:02:07;;;;;;;13.77;4.57;;;7.30;99.90;;;;;;5089150;28;20020;-47
2021/10/17 01:04:37;;;;;;;10.63;4.35;;;7.30;99.90;;;;;;5087691;28;20040;-50
2021/10/17 01:07:03;;;;;;;9.43;4.00;;;7.30;99.90;;;;;;5088382;28;20401;-48
2021/10/17 01:09:29;;;;;;;8.57;3.20;;;7.30;99.90;;;;;;5088415;28;20051;-46
2021/10/17 01:11:54;;;;;;;11.38;3.30;;;7.30;99.90;;;;;;5089518;28;20424;-50
2021/10/17 01:14:22;;;;;;;10.65;3.67;;;7.30;99.90;;;;;;5089441;28;20371;-49
2021/10/17 01:16:49;;;;;;;9.65;4.25;;;7.40;99.90;;;;;;5089227;28;20028;-46
2021/10/17 01:19:15;;;;;;;16.00;5.25;;;7.40;99.90;;;;;;5087186;28;20024;-47
2021/10/17 01:21:42;;;;;;;10.52;3.38;;;7.40;99.90;;;;;;5089180;28;20099;-46
2021/10/17 01:24:08;;;;;;;8.10;3.35;;;7.40;99.90;;;;;;5078771;28;20507;-50
2021/10/17 01:26:35;;;;;;;8.68;3.38;;;7.50;99.90;;;;;;5084469;28;20034;-46
2021/10/17 01:29:01;;;;;;;13.10;4.03;;;7.50;99.90;;;;;;5087007;28;20035;-48
2021/10/17 01:31:52;;;;;;;9.02;4.35;;;7.50;99.90;;;;;;5088737;28;20108;-47
2021/10/17 01:34:19;;;;;;;12.68;3.42;;;7.50;99.90;;;;;;5088889;28;20028;-48
2021/10/17 01:36:45;;;;;;;16.83;4.25;;;7.50;99.90;;;;;;5088509;28;20038;-46
2021/10/17 01:39:12;;;;;;;13.20;3.92;;;7.50;99.90;;;;;;5086287;28;20550;-49
2021/10/17 01:41:38;;;;;;;9.38;3.35;;;7.50;99.90;;;;;;5088637;28;20020;-49
2021/10/17 01:44:11;;;;;;;8.20;3.70;;;7.50;99.90;;;;;;5088519;28;20085;-48
2021/10/17 01:46:37;;;;;;;10.98;4.57;;;7.60;99.90;;;;;;5087295;28;20016;-47
2021/10/17 01:49:05;;;;;;;10.73;4.57;;;7.60;99.90;;;;;;5087850;28;20496;-48
2021/10/17 01:51:30;;;;;;;10.75;3.63;;;7.70;99.90;;;;;;5088689;28;20107;-49
2021/10/17 01:53:56;;;;;;;6.95;3.55;;;7.60;99.90;;;;;;5074840;28;20156;-47
2021/10/17 01:56:22;;;;;;;10.85;4.05;;;7.60;99.90;;;;;;5082341;28;20404;-47
2021/10/17 01:58:47;;;;;;;12.70;3.95;;;7.70;99.90;;;;;;5087920;28;20036;-49
2021/10/17 02:01:13;;;;;;;15.10;3.15;;;7.70;99.90;;;;;;5088458;28;20405;-50
2021/10/17 02:03:38;;;;;;;8.95;3.33;;;7.70;99.90;;;;;;5088631;28;20477;-48
2021/10/17 02:06:04;;;;;;;14.55;3.65;;;7.70;99.90;;;;;;5088375;28;20032;-47
2021/10/17 02:08:30;;;;;;;8.90;3.63;;;7.70;99.90;;;;;;5087451;28;20378;-47
2021/10/17 02:10:56;;;;;;;11.98;3.65;;;7.70;99.90;;;;;;5088589;28;20557;-50
2021/10/17 02:13:22;;;;;;;13.77;4.07;;;7.80;99.90;;;;;;5088181;28;20358;-48
2021/10/17 02:15:47;;;;;;;8.32;3.17;;;7.80;99.90;;;;;;5088228;28;20106;-48
2021/10/17 02:18:13;;;;;;;11.13;4.10;;;7.80;99.90;;;;;;5087599;28;20024;-50
2021/10/17 02:20:39;;;;;;;9.43;3.67;;;7.80;99.90;;;;;;5088140;28;20513;-50
2021/10/17 02:23:04;;;;;;;12.20;4.13;;;7.80;99.90;;;;;;5081244;28;20031;-47
2021/10/17 02:25:31;;;;;;;11.30;3.78;;;7.80;99.90;;;;;;5083559;28;20397;-47
2021/10/17 02:27:56;;;;;;;15.93;3.75;;;7.80;99.90;;;;;;5091507;28;20021;-48
2021/10/17 02:30:22;;;;;;;11.43;3.53;;;7.90;99.90;;;;;;5092120;28;20034;-48
2021/10/17 02:32:47;;;;;;;13.35;4.55;;;7.80;99.90;;;;;;5092353;28;20413;-48
2021/10/17 02:35:13;;;;;;;9.43;4.45;;;7.90;99.90;;;;;;5092407;28;20024;-48
2021/10/17 02:37:39;;;;;;;10.02;4.22;;;7.90;99.90;;;;;;5091054;28;20050;-50
2021/10/17 02:40:05;;;;;;;13.13;4.43;;;7.80;99.90;;;;;;5091634;28;20063;-47
2021/10/17 02:42:30;;;;;;;13.68;4.63;;;7.80;99.90;;;;;;5091599;28;20031;-50
2021/10/17 02:44:56;;;;;;;13.60;4.38;;;7.80;99.90;;;;;;5091671;28;20024;-47
2021/10/17 02:47:21;;;;;;;10.27;3.67;;;7.80;99.90;;;;;;5090987;28;20016;-50
2021/10/17 02:49:47;;;;;;;15.18;5.22;;;7.70;99.90;;;;;;5091578;28;20047;-46
2021/10/17 02:52:12;;;;;;;13.85;4.32;;;7.70;99.90;;;;;;5091016;28;20035;-46
2021/10/17 02:54:38;;;;;;;12.30;4.18;;;7.80;99.90;;;;;;5076212;28;20086;-47
2021/10/17 02:57:03;;;;;;;10.68;3.80;;;7.70;99.90;;;;;;5091244;28;20034;-47
2021/10/17 02:59:29;;;;;;;12.30;3.85;;;7.70;99.90;;;;;;5091708;28;20461;-47
2021/10/17 03:01:54;;;;;;;10.68;4.63;;;7.70;99.90;;;;;;5091616;28;20331;-50
2021/10/17 03:04:20;;;;;;;8.60;3.70;;;7.80;99.90;;;;;;5068501;28;20047;-46
2021/10/17 03:06:45;;;;;;;10.52;3.67;;;7.80;99.90;;;;;;5063114;28;20119;-47
2021/10/17 03:09:11;;;;;;;18.38;4.90;;;7.80;99.90;;;;;;5060455;28;20431;-47
2021/10/17 03:11:36;;;;;;;12.77;4.22;;;7.80;99.90;;;;;;5061455;28;20033;-47
2021/10/17 03:14:05;;;;;;;8.60;3.88;;;7.80;99.90;;;;;;5060067;28;20095;-47
2021/10/17 03:16:31;;;;;;;7.28;3.60;;;7.80;99.90;;;;;;5068007;28;20563;-47
2021/10/17 03:18:56;;;;;;;11.85;4.18;;;7.80;99.90;;;;;;5065540;28;20028;-47
2021/10/17 03:21:22;;;;;;;11.10;3.97;;;7.90;99.90;;;;;;5068175;28;20035;-46
2021/10/17 03:23:48;;;;;;;8.77;3.72;;;7.90;99.90;;;;;;5073810;28;20024;-47
2021/10/17 03:26:14;;;;;;;13.52;4.00;;;7.90;99.90;;;;;;5084670;28;20032;-46
2021/10/17 03:28:41;;;;;;;12.45;4.40;;;8.00;99.90;;;;;;5081067;28;20059;-47
2021/10/17 03:31:07;;;;;;;13.50;3.97;;;8.00;99.90;;;;;;5070523;28;20029;-49
2021/10/17 03:33:34;;;;;;;9.45;4.15;;;8.00;99.90;;;;;;5067167;28;20017;-47
2021/10/17 03:35:59;;;;;;;12.30;4.15;;;8.10;99.90;;;;;;5058734;28;20036;-47
2021/10/17 03:38:25;;;;;;;16.63;4.28;;;8.10;99.90;;;;;;5066542;28;20032;-47
2021/10/17 03:40:51;;;;;;;14.65;4.40;;;8.10;99.90;;;;;;5070317;28;20024;-47
2021/10/17 03:43:16;;;;;;;10.98;3.55;;;8.10;99.90;;;;;;5070460;28;20353;-47
2021/10/17 03:45:42;;;;;;;9.60;3.88;;;8.00;99.90;;;;;;5070240;28;20290;-47
2021/10/17 03:48:08;;;;;;;14.82;4.63;;;8.00;99.90;;;;;;5058060;28;20487;-48
2021/10/17 03:50:34;;;;;;;8.50;3.35;;;8.00;99.90;;;;;;5062409;28;20024;-47
2021/10/17 03:53:00;;;;;;;12.45;3.58;;;8.00;99.90;;;;;;5071516;28;20035;-47
2021/10/17 03:55:28;;;;;;;14.98;4.00;;;8.00;99.90;;;;;;5081790;28;20043;-50
2021/10/17 03:57:54;;;;;;;10.18;3.95;;;8.00;99.90;;;;;;5088197;28;20035;-47
2021/10/17 04:00:21;;;;;;;9.27;4.10;;;8.00;99.90;;;;;;5089800;28;20028;-48
2021/10/17 04:02:47;;;;;;;12.32;4.40;;;8.00;99.90;;;;;;5081312;28;20017;-47
2021/10/17 04:05:13;;;;;;;8.02;3.88;;;8.00;99.90;;;;;;5059614;28;20021;-47
2021/10/17 04:07:38;;;;;;;9.35;3.45;;;8.00;99.90;;;;;;5058147;28;20031;-46
2021/10/17 04:10:05;;;;;;;11.82;5.90;;;8.00;99.90;;;;;;5055103;28;20029;-47
2021/10/17 04:12:31;;;;;;;9.40;4.28;;;8.00;99.90;;;;;;5050116;28;20029;-47
2021/10/17 04:14:57;;;;;;;14.52;4.80;;;8.10;99.90;;;;;;5049803;28;20386;-47
2021/10/17 04:17:23;;;;;;;16.67;4.25;;;8.10;99.90;;;;;;5049456;28;20090;-47
2021/10/17 04:19:49;;;;;;;13.30;4.18;;;8.10;99.90;;;;;;5049572;28;20050;-49
2021/10/17 04:22:15;;;;;;;12.65;4.57;;;8.10;99.90;;;;;;5049684;28;20036;-47
2021/10/17 04:24:40;;;;;;;10.30;4.28;;;8.10;99.90;;;;;;5075981;28;20029;-46
2021/10/17 04:27:08;;;;;;;9.80;3.85;;;8.10;99.90;;;;;;5087696;28;20056;-47
2021/10/17 04:29:35;;;;;;;12.30;5.07;;;8.20;99.90;;;;;;5089624;28;20501;-48
2021/10/17 04:32:00;;;;;;;15.15;4.05;;;8.20;99.90;;;;;;5089806;28;20034;-49
2021/10/17 04:34:26;;;;;;;9.10;4.65;;;8.20;99.90;;;;;;5078411;28;20025;-47
2021/10/17 04:36:51;;;;;;;11.68;3.92;;;8.20;99.90;;;;;;5066570;28;20203;-47
2021/10/17 04:39:17;;;;;;;13.85;4.53;;;8.20;99.90;;;;;;5068884;28;20109;-48
2021/10/17 04:41:42;;;;;;;8.18;4.38;;;8.30;99.90;;;;;;5069156;28;20020;-47
2021/10/17 04:44:08;;;;;;;9.77;4.85;;;8.30;99.90;;;;;;5068536;28;20471;-47
2021/10/17 04:46:34;;;;;;;16.55;4.60;;;8.30;99.90;;;;;;5069031;28;20025;-47
2021/10/17 04:48:59;;;;;;;14.82;5.20;;;8.30;99.90;;;;;;5068448;28;20458;-47
2021/10/17 04:51:25;;;;;;;12.45;3.95;;;8.30;99.90;;;;;;5068938;28;20070;-48
2021/10/17 04:53:50;;;;;;;16.35;4.80;;;8.30;99.90;;;;;;5075488;28;20024;-49
2021/10/17 04:56:16;;;;;;;13.50;4.55;;;8.30;99.90;;;;;;5083468;28;20131;-47
2021/10/17 04:58:42;;;;;;;14.75;4.97;;;8.40;99.90;;;;;;5090007;28;20032;-46
2021/10/17 05:01:10;;;;;;;11.35;4.80;;;8.40;99.90;;;;;;5089303;28;20077;-48
2021/10/17 05:03:36;;;;;;;8.10;3.88;;;8.30;99.90;;;;;;5088783;28;20024;-49
2021/10/17 05:06:03;;;;;;;13.45;4.85;;;8.30;99.90;;;;;;5070759;28;20021;-46
2021/10/17 05:08:29;;;;;;;15.57;5.22;;;8.30;99.90;;;;;;5084587;28;20032;-48
2021/10/17 05:10:55;;;;;;;18.73;5.47;;;8.30;99.90;;;;;;5086800;28;20027;-48
2021/10/17 05:13:21;;;;;;;15.10;5.00;;;8.40;99.90;;;;;;5081705;28;20081;-46
2021/10/17 05:15:46;;;;;;;13.52;5.70;;;8.40;99.90;;;;;;5090344;28;20107;-47
2021/10/17 05:18:11;;;;;;;12.93;4.95;;;8.40;99.90;;;;;;5089647;28;20039;-47
2021/10/17 05:20:37;;;;;;;12.50;4.93;;;8.40;99.90;;;;;;5071722;28;20039;-49
2021/10/17 05:23:05;;;;;;;15.38;4.68;;;8.40;99.90;;;;;;5082838;28;20024;-49
2021/10/17 05:25:30;;;;;;;11.85;4.15;;;8.50;99.90;;;;;;5090979;28;20146;-47
2021/10/17 05:27:56;;;;;;;15.80;4.70;;;8.50;99.90;;;;;;5088648;28;20612;-47
2021/10/17 05:30:22;;;;;;;16.30;5.10;;;8.50;99.90;;;;;;5090315;28;20020;-47
2021/10/17 05:32:47;;;;;;;13.13;4.45;;;8.50;99.90;;;;;;5090270;28;20107;-47
2021/10/17 05:35:13;;;;;;;11.95;4.63;;;8.40;99.90;;;;;;5089824;28;20020;-48
2021/10/17 05:37:39;;;;;;;18.30;5.32;;;8.50;99.90;;;;;;5089446;28;20105;-47
2021/10/17 05:40:05;;;;;;;21.77;5.47;;;8.40;99.90;;;;;;5089832;28;20576;-48
2021/10/17 05:42:30;;;;;;;20.35;5.38;;;8.50;99.90;;;;;;5090157;28;20525;-47
2021/10/17 05:44:56;;;;;;;16.52;5.45;;;8.50;99.90;;;;;;5089966;28;20052;-48
2021/10/17 05:47:21;;;;;;;15.00;4.60;;;8.50;99.90;;;;;;5089459;28;20024;-49
2021/10/17 05:49:47;;;;;;;14.52;5.20;;;8.60;99.90;;;;;;5080267;28;20028;-46
2021/10/17 05:52:13;;;;;;;16.02;4.97;;;8.50;99.90;;;;;;5081315;28;20043;-47
2021/10/17 05:54:38;;;;;;;15.05;5.32;;;8.50;99.90;;;;;;5089796;28;20032;-47
2021/10/17 05:57:04;;;;;;;8.73;4.85;;;8.50;99.90;;;;;;5093243;28;20024;-47
2021/10/17 05:59:29;;;;;;;14.70;5.28;;;8.50;99.90;;;;;;5093632;28;20099;-48
2021/10/17 06:01:55;;;;;;;12.23;4.75;;;8.50;99.90;;;;;;5093758;28;20048;-47
2021/10/17 06:04:20;;;;;;;16.10;5.10;;;8.50;99.90;;;;;;5093004;28;20020;-49
2021/10/17 06:06:46;;;;;;;15.45;5.20;;;8.50;99.90;;;;;;5092958;28;20077;-48
2021/10/17 06:09:11;;;;;;;11.02;5.70;;;8.50;99.90;;;;;;5090702;28;20024;-48
2021/10/17 06:11:37;;;;;;;15.63;5.10;;;8.50;99.90;;;;;;5092919;28;20031;-48
2021/10/17 06:14:04;;;;;;;16.17;4.88;;;8.50;99.90;;;;;;5093702;28;20020;-47
2021/10/17 06:16:30;;;;;;;11.52;5.15;;;8.60;99.90;;;;;;5075797;28;20028;-48
2021/10/17 06:18:55;;;;;;;16.77;5.75;;;8.60;99.90;;;;;;5067719;28;20040;-47
2021/10/17 06:21:21;;;;;;;13.13;5.07;;;8.60;99.90;;;;;;5071335;28;20031;-48
2021/10/17 06:23:46;;;;;;;13.18;5.95;;;8.60;99.90;;;;;;5064153;28;20025;-47
2021/10/17 06:26:12;;;;;;;16.20;5.13;;;8.50;99.90;;;;;;5062595;28;20040;-48
2021/10/17 06:28:37;;;;;;;10.85;4.95;;;8.60;99.90;;;;;;5061475;28;20017;-49
2021/10/17 06:31:03;;;;;;;13.57;5.43;;;8.60;99.90;;;;;;5061606;28;20028;-48
2021/10/17 06:33:28;;;;;;;13.75;4.90;;;8.60;99.90;;;;;;5071681;28;20390;-47
2021/10/17 06:35:54;;;;;;;12.43;4.75;;;8.60;99.90;;;;;;5053063;28;20040;-48
2021/10/17 06:38:19;;;;;;;14.50;5.47;;;8.70;99.90;;;;;;5052439;28;20096;-46
2021/10/17 06:40:45;;;;;;;12.27;5.40;;;8.70;99.90;;;;;;5052991;28;20110;-47
2021/10/17 06:43:10;;;;;;;11.43;5.28;;;8.70;99.90;;;;;;5060495;28;20055;-48
2021/10/17 06:45:36;;;;;;;11.32;5.57;;;8.70;99.90;;;;;;5071887;28;20461;-48
2021/10/17 06:48:01;;;;;;;15.85;5.20;;;8.80;99.90;;;;;;5071557;28;20593;-49
2021/10/17 06:50:27;;;;;;;16.70;5.45;;;8.70;99.90;;;;;;5071282;28;20102;-46
2021/10/17 06:52:52;;;;;;;15.75;6.28;;;8.70;99.90;;;;;;5084276;28;20205;-46
2021/10/17 06:55:18;;;;;;;17.80;5.50;;;8.80;99.90;;;;;;5092981;28;20028;-49
2021/10/17 06:57:45;;;;;;;12.05;5.65;;;8.80;99.90;;;;;;5092495;28;20081;-50
2021/10/17 07:00:11;;;;;;;14.85;6.18;;;8.80;99.90;;;;;;5093023;28;20028;-46
2021/10/17 07:02:37;;;;;;;11.48;5.20;;;8.80;99.90;;;;;;5093020;28;20055;-48
2021/10/17 07:05:03;;;;;;;16.33;5.63;;;8.90;99.90;;;;;;5092652;28;20062;-47
2021/10/17 07:07:29;;;;;;;14.50;5.10;;;8.90;99.90;;;;;;5091126;28;20035;-46
2021/10/17 07:09:55;;;;;;;10.77;4.57;;;8.90;99.90;;;;;;5093011;28;20028;-50
2021/10/17 07:12:20;;;;;;;14.98;5.60;;;8.90;99.90;;;;;;5092686;28;20043;-47
2021/10/17 07:14:46;;;;;;;14.70;5.13;;;9.00;99.90;;;;;;5092915;28;20028;-47
2021/10/17 07:17:11;;;;;;;23.90;6.28;;;9.10;99.90;;;;;;5090633;28;20058;-50
2021/10/17 07:19:37;;;;;;;10.32;4.30;;;9.10;99.90;;;;;;5076056;28;20043;-47
2021/10/17 07:22:02;;;;;;;13.32;4.70;;;9.20;99.90;;;;;;5084047;28;20498;-46
2021/10/17 07:24:28;;;;;;;16.88;5.10;;;9.20;99.90;;;;;;5077582;28;20127;-47
2021/10/17 07:26:53;;;;;;;14.75;5.28;;;9.30;99.90;;;;;;5083677;28;20559;-47
2021/10/17 07:29:19;;;;;;;15.57;5.13;;;9.30;99.90;;;;;;5092032;28;20036;-47
2021/10/17 07:31:44;;;;;;;18.23;5.25;;;9.40;99.90;;;;;;5092408;28;20053;-47
2021/10/17 07:34:10;;;;;;;13.20;5.10;;;9.40;99.90;;;;;;5092474;28;20495;-47
2021/10/17 07:36:36;;;;;;;8.57;4.68;;;9.50;99.90;;;;;;5091877;28;20073;-48
2021/10/17 07:39:02;;;;;;;13.10;4.88;;;9.60;99.90;;;;;;5091551;28;20428;-50
2021/10/17 07:41:27;;;;;;;9.90;5.30;;;9.60;99.90;;;;;;5092163;28;20027;-48
2021/10/17 07:43:53;;;;;;;12.40;4.45;;;9.70;99.90;;;;;;5092279;28;20032;-50
2021/10/17 07:46:18;;;;;;;18.27;4.85;;;9.70;99.90;;;;;;5091979;28;20035;-49
2021/10/17 07:48:44;;;;;;;14.00;4.45;;;9.80;99.90;;;;;;5091396;28;20397;-48
2021/10/17 07:51:09;;;;;;;14.93;5.28;;;9.80;99.90;;;;;;5091767;28;20016;-49
2021/10/17 07:53:35;;;;;;;15.50;5.15;;;9.90;99.90;;;;;;5076783;28;20021;-49
2021/10/17 07:56:00;;;;;;;11.98;5.05;;;10.00;99.90;;;;;;5083512;28;20099;-50
2021/10/17 07:58:26;;;;;;;16.67;4.90;;;10.10;99.90;;;;;;5090069;28;20035;-51
2021/10/17 08:00:53;;;;;;;12.82;5.43;;;10.10;99.90;;;;;;5086255;28;20032;-48
2021/10/17 08:03:19;;;;;;;12.15;4.22;;;10.20;99.90;;;;;;5058316;28;20033;-49
2021/10/17 08:05:44;;;;;;;22.35;5.28;;;10.40;99.90;;;;;;5074680;28;20086;-51
2021/10/17 08:08:10;;;;;;;13.73;5.38;;;10.40;99.90;;;;;;5070164;28;20432;-49
2021/10/17 08:10:35;;;;;;;9.93;4.35;;;10.40;99.90;;;;;;5070409;28;20033;-50
2021/10/17 08:13:02;;;;;;;11.18;4.88;;;10.50;99.90;;;;;;5070754;28;20028;-51
2021/10/17 08:15:28;;;;;;;11.70;4.57;;;10.50;99.90;;;;;;5070684;28;20066;-51
2021/10/17 08:17:55;;;;;;;18.17;5.15;;;10.60;99.90;;;;;;5069336;28;20066;-49
2021/10/17 08:20:21;;;;;;;18.15;4.95;;;10.60;99.90;;;;;;5069046;28;20032;-49
2021/10/17 08:22:47;;;;;;;14.57;5.50;;;10.50;99.90;;;;;;5078935;28;20532;-48
2021/10/17 08:25:12;;;;;;;11.25;4.22;;;10.50;99.90;;;;;;5072476;28;20082;-48
2021/10/17 08:27:40;;;;;;;12.25;4.93;;;10.50;99.90;;;;;;5086706;28;20396;-51
2021/10/17 08:30:08;;;;;;;15.75;5.32;;;10.50;99.90;;;;;;5090017;28;20527;-49
2021/10/17 08:32:33;;;;;;;21.55;4.57;;;10.50;99.90;;;;;;5090092;28;20028;-51
2021/10/17 08:34:59;;;;;;;10.48;4.55;;;10.60;99.90;;;;;;5078377;28;20637;-51
2021/10/17 08:37:25;;;;;;;14.38;4.72;;;10.70;99.90;;;;;;5065821;28;20052;-50
2021/10/17 08:39:51;;;;;;;11.00;4.05;;;10.80;99.90;;;;;;5074013;28;20628;-47
2021/10/17 08:42:17;;;;;;;12.02;4.60;;;10.80;99.90;;;;;;5066169;28;20393;-49
2021/10/17 08:44:42;;;;;;;14.57;5.07;;;10.80;99.90;;;;;;5067458;28;20028;-48
2021/10/17 08:47:08;;;;;;;11.70;4.55;;;10.90;99.90;;;;;;5073866;28;20372;-48
2021/10/17 08:49:34;;;;;;;16.23;5.15;;;10.90;99.90;;;;;;5069754;28;20032;-49
2021/10/17 08:52:00;;;;;;;13.57;4.70;;;11.00;99.90;;;;;;5068879;28;20029;-48
2021/10/17 08:54:25;;;;;;;13.43;5.03;;;11.00;99.90;;;;;;5064745;28;20047;-50
2021/10/17 08:56:51;;;;;;;11.23;4.22;;;11.00;99.90;;;;;;5077094;28;20021;-47
2021/10/17 08:59:17;;;;;;;12.52;4.47;;;11.10;99.90;;;;;;5069339;28;20032;-49
2021/10/17 09:01:42;;;;;;;12.88;4.22;;;11.10;99.90;;;;;;5070020;28;20097;-49
2021/10/17 09:04:10;;;;;;;12.65;4.78;;;11.20;99.90;;;;;;5069660;28;20013;-50
2021/10/17 09:06:38;;;;;;;10.68;4.25;;;11.20;99.90;;;;;;5069498;28;20413;-50
2021/10/17 09:09:09;;;;;;;18.40;4.55;;;11.20;99.90;;;;;;5069443;28;20028;-50
2021/10/17 09:11:42;;;;;;;18.00;5.30;;;11.20;99.90;;;;;;5069935;28;20020;-48
2021/10/17 09:14:13;;;;;;;17.30;5.43;;;11.20;99.90;;;;;;5069566;28;20112;-49
2021/10/17 09:16:40;;;;;;;;;;;11.30;99.90;;;;;;5070390;28;20517;-48
2021/10/17 09:19:06;;;;;;;17.60;4.57;;;11.30;99.90;;;;;;5068864;28;19999;-51
2021/10/17 09:21:32;;;;;;;10.82;3.95;;;11.30;99.90;;;;;;5068915;28;20474;-48
2021/10/17 09:23:58;;;;;;;14.15;3.83;;;11.30;99.90;;;;;;5065612;28;20035;-46
2021/10/17 09:26:23;;;;;;;11.27;4.40;;;11.30;99.90;;;;;;5081312;28;20024;-47
2021/10/17 09:28:51;;;;;;;10.05;4.25;;;11.20;99.90;;;;;;5089786;28;20101;-47
2021/10/17 09:31:19;;;;;;;14.32;5.05;;;11.20;99.90;;;;;;5090013;28;20024;-50
2021/10/17 09:33:55;;;;;;;20.70;4.72;;;11.10;99.90;;;;;;5089123;28;20108;-48
2021/10/17 09:36:27;;;;;;;12.63;4.28;;;11.10;99.90;;;;;;5089950;28;20020;-49
2021/10/17 09:38:57;;;;;;;14.40;4.13;;;11.10;99.90;;;;;;5089336;28;20028;-49
2021/10/17 09:41:43;;;;;;;10.70;4.32;;;11.10;99.90;;;;;;5088826;28;20048;-48
2021/10/17 09:44:09;;;;;;;15.70;4.45;;;11.20;99.90;;;;;;5090290;28;20020;-49
2021/10/17 09:46:35;;;;;;;12.57;4.85;;;11.20;99.90;;;;;;5090062;28;20373;-49
2021/10/17 09:49:16;;;;;;;13.00;4.50;;;11.30;99.90;;;;;;5089705;28;20012;-48
2021/10/17 09:51:41;;;;;;;10.75;4.57;;;11.40;99.90;;;;;;5089840;28;20393;-47
2021/10/17 09:54:07;;;;;;;18.17;5.55;;;11.40;99.90;;;;;;5080058;28;20025;-48
2021/10/17 09:56:40;;;;;;;15.18;5.03;;;11.30;99.90;;;;;;5081479;28;20027;-49
2021/10/17 09:59:11;;;;;;;14.55;5.22;;;11.40;99.90;;;;;;5089445;28;20028;-48
2021/10/17 10:01:38;;;;;;;11.55;4.72;;;11.40;99.90;;;;;;5088716;28;20055;-49
2021/10/17 10:04:06;;;;;;;11.18;4.35;;;11.40;99.90;;;;;;5090050;28;20115;-49
2021/10/17 10:06:32;;;;;;;12.75;4.70;;;11.40;99.90;;;;;;5089648;28;20111;-50
2021/10/17 10:09:01;;;;;;;15.63;4.55;;;11.40;99.90;;;;;;5089164;28;20024;-49
2021/10/17 10:11:29;;;;;;;12.25;4.75;;;11.40;99.90;;;;;;5089906;28;20050;-48
2021/10/17 10:13:58;;;;;;;15.57;5.00;;;11.50;99.90;;;;;;5089928;28;20020;-50
2021/10/17 10:16:27;;;;;;;16.70;4.60;;;11.70;99.90;;;;;;5089678;28;20020;-50
2021/10/17 10:18:57;;;;;;;14.15;5.50;;;11.70;99.90;;;;;;5089029;28;20083;-47
2021/10/17 10:21:23;;;;;;;12.13;5.20;;;11.80;99.90;;;;;;5089661;28;20023;-48
2021/10/17 10:23:51;;;;;;;11.43;4.13;;;11.80;99.90;;;;;;5079750;28;20025;-48
2021/10/17 10:26:20;;;;;;;14.32;4.30;;;11.90;99.90;;;;;;5081104;28;20069;-49
2021/10/17 10:28:47;;;;;;;11.23;5.00;;;12.10;99.90;;;;;;5088997;28;20027;-48
2021/10/17 10:31:45;;;;;;;12.00;4.72;;;12.30;99.90;;;;;;5089644;28;20456;-47
2021/10/17 10:34:36;;;;;;;15.25;5.07;;;12.30;99.90;;;;;;5089680;28;20044;-48
2021/10/17 10:37:46;;;;;;;13.90;5.05;;;12.60;99.90;;;;;;5079077;28;20020;-50
2021/10/17 10:40:12;;;;;;;11.13;4.35;;;12.80;99.90;;;;;;5048709;28;20050;-50
2021/10/17 10:42:42;;;;;;;14.68;4.35;;;12.90;99.90;;;;;;5070048;28;20498;-51
2021/10/17 10:45:25;;;;;;;12.55;4.35;;;13.10;99.90;;;;;;5072798;28;20039;-51
2021/10/17 10:48:11;;;;;;;12.45;4.28;;;13.20;99.90;;;;;;5072072;28;20059;-50
2021/10/17 10:51:08;;;;;;;11.95;4.32;;;13.40;99.90;;;;;;5072474;28;20017;-51
2021/10/17 10:53:48;;;;;;;11.02;4.43;;;13.50;99.90;;;;;;5065552;28;20037;-51
2021/10/17 10:56:37;;;;;;;12.77;4.60;;;13.50;99.90;;;;;;5084472;28;20020;-50
2021/10/17 10:59:03;;;;;;;14.35;5.07;;;13.60;99.90;;;;;;5085426;28;20581;-50
2021/10/17 11:02:09;;;;;;;10.75;5.20;;;13.70;99.90;;;;;;5092706;28;20066;-51
2021/10/17 11:04:38;;;;;;;21.55;5.07;;;13.70;99.50;;;;;;5092760;28;20485;-51
2021/10/17 11:07:16;;;;;;;14.50;4.32;;;13.80;99.90;;;;;;5091921;28;20092;-51
2021/10/17 11:09:41;;;;;;;13.82;5.07;;;13.90;98.80;;;;;;5092787;28;20435;-51
2021/10/17 11:12:08;;;;;;;14.02;4.82;;;13.80;98.50;;;;;;5092909;28;20032;-51
2021/10/17 11:14:33;;;;;;;13.63;4.15;;;13.70;98.60;;;;;;5092665;28;20089;-51
2021/10/17 11:17:06;;;;;;;9.95;4.20;;;13.60;99.20;;;;;;5092247;28;20040;-51
2021/10/17 11:19:35;;;;;;;14.13;4.30;;;13.50;99.10;;;;;;5092389;28;20500;-51
2021/10/17 11:22:04;;;;;;;12.25;4.50;;;13.30;99.40;;;;;;5092180;28;20020;-51
2021/10/17 11:24:31;;;;;;;11.85;4.53;;;13.30;99.90;;;;;;5081817;28;20174;-51
2021/10/17 11:27:13;;;;;;;9.43;3.95;;;13.30;99.90;;;;;;5083671;28;20019;-50
2021/10/17 11:29:42;;;;;;;10.15;3.92;;;13.30;99.90;;;;;;5092169;28;20100;-51
2021/10/17 11:32:09;;;;;;;11.43;4.40;;;13.30;99.90;;;;;;5092313;28;20020;-51
2021/10/17 11:34:35;;;;;;;10.93;4.00;;;13.20;99.90;;;;;;5092144;28;20020;-50
2021/10/17 11:37:21;;;;;;;13.90;4.55;;;13.30;99.90;;;;;;5091363;28;20512;-50
2021/10/17 11:40:02;;;;;;;11.27;3.95;;;13.30;99.90;;;;;;5091969;28;20074;-48
2021/10/17 11:42:29;;;;;;;7.32;4.13;;;13.20;99.90;;;;;;5092197;28;20024;-51
2021/10/17 11:44:55;;;;;;;10.10;4.15;;;13.20;99.90;;;;;;5091863;28;20503;-51
2021/10/17 11:47:22;;;;;;;6.70;3.58;;;13.20;99.90;;;;;;5089949;28;20028;-48
2021/10/17 11:49:48;;;;;;;10.38;4.30;;;13.20;99.90;;;;;;5091915;28;20024;-50
2021/10/17 11:52:20;;;;;;;13.35;5.20;;;13.20;99.90;;;;;;5091521;28;20070;-50
2021/10/17 11:54:47;;;;;;;10.75;3.83;;;13.20;99.90;;;;;;5081991;28;20035;-50
2021/10/17 11:57:32;;;;;;;9.70;4.05;;;13.30;99.90;;;;;;5084676;28;20024;-51
2021/10/17 12:00:04;;;;;;;10.73;4.40;;;13.40;99.90;;;;;;5090159;28;20031;-51
2021/10/17 12:02:35;;;;;;;12.23;4.18;;;13.40;99.90;;;;;;5089864;28;20024;-51
2021/10/17 12:05:02;;;;;;;8.45;3.60;;;13.40;99.90;;;;;;5091442;28;20053;-51
2021/10/17 12:07:28;;;;;;;13.15;4.45;;;13.30;99.60;;;;;;5090669;28;20031;-51
2021/10/17 12:16:38;;;;;;;10.05;4.18;;;13.20;99.90;;;;;;5059052;28;20688;-51
2021/10/17 12:19:07;;;;;;;9.40;3.90;;;13.30;99.90;;;;;;5070377;28;20036;-50
2021/10/17 12:21:38;;;;;;;8.82;3.97;;;13.30;99.90;;;;;;5070691;28;20059;-51
2021/10/17 12:24:04;;;;;;;8.57;4.13;;;13.10;99.90;;;;;;5070615;28;20073;-50
2021/10/17 12:26:32;;;;;;;11.65;4.07;;;13.00;99.90;;;;;;5082410;28;20031;-51
2021/10/17 12:29:12;;;;;;;13.13;4.45;;;13.10;99.90;;;;;;5090467;28;20073;-51
2021/10/17 12:31:43;;;;;;;7.57;3.88;;;13.20;99.90;;;;;;5090929;28;20478;-50
2021/10/17 12:34:09;;;;;;;13.50;4.63;;;13.20;99.90;;;;;;5090824;28;20108;-50
2021/10/17 12:36:36;;;;;;;10.48;4.55;;;13.20;99.90;;;;;;5091022;28;20020;-50
2021/10/17 12:39:05;;;;;;;10.13;3.78;;;13.20;99.90;;;;;;5090132;28;20028;-50
2021/10/17 12:41:32;;;;;;;10.25;4.30;;;13.20;99.90;;;;;;5089314;28;20423;-51
2021/10/17 12:44:06;;;;;;;9.77;3.97;;;13.00;99.90;;;;;;5089354;28;20055;-50
2021/10/17 12:46:32;;;;;;;12.43;3.95;;;13.00;99.90;;;;;;5089404;28;20023;-51
2021/10/17 12:49:08;;;;;;;14.93;4.90;;;12.90;99.90;;;;;;5090106;28;20031;-51
2021/10/17 12:51:37;;;;;;;9.30;4.05;;;13.00;99.90;;;;;;5090698;28;20012;-51
2021/10/17 12:54:07;;;;;;;10.10;4.05;;;12.90;99.90;;;;;;5086302;28;20095;-51